Time;durP1;ratioP1;P1;durP2;ratioP2;P2;SDS_P1;SDS_P2;PMS_P1;PMS_P2;Temp;Humidity;BMP_temperature;BMP_pressure;BME280_temperature;BME280_humidity;BME280_pressure;Samples;Min_cycle;Max_cycle;Signal;HPM_P1;HPM_P2
2023/08/01 00:01:39;;;;;;;8.95;3.75;;;;;;;18.69;80.96;99464.78;4177513;28;20295;-76
2023/08/01 00:03:42;;;;;;;11.02;5.05;;;;;;;18.73;80.93;99455.84;4155218;28;20124;-77
2023/08/01 00:05:45;;;;;;;8.70;4.53;;;;;;;18.74;80.74;99441.78;4134521;28;20109;-78
2023/08/01 00:07:48;;;;;;;9.35;4.80;;;;;;;18.61;81.26;99430.81;4174327;28;20052;-79
2023/08/01 00:09:51;;;;;;;7.07;4.25;;;;;;;18.72;81.17;99422.56;4158757;28;20053;-77
2023/08/01 00:11:54;;;;;;;12.27;5.80;;;;;;;18.70;81.17;99419.09;4175340;28;20120;-76
2023/08/01 00:13:58;;;;;;;10.70;4.32;;;;;;;18.59;81.37;99426.53;4158565;28;20052;-77
2023/08/01 00:16:01;;;;;;;11.47;5.13;;;;;;;18.42;82.20;99417.44;4178904;28;20494;-78
2023/08/01 00:18:10;;;;;;;11.85;5.18;;;;;;;18.53;82.18;99400.41;4175473;28;20370;-78
2023/08/01 00:20:12;;;;;;;10.88;4.55;;;;;;;18.55;82.29;99382.81;4176319;28;20064;-79
2023/08/01 00:22:15;;;;;;;11.07;4.80;;;;;;;18.64;81.21;99382.47;4164031;28;20068;-80
2023/08/01 00:24:18;;;;;;;11.02;4.70;;;;;;;18.58;81.96;99380.91;4182201;28;20471;-78
2023/08/01 00:26:21;;;;;;;9.20;4.78;;;;;;;18.64;82.06;99377.22;4161964;28;20069;-79
2023/08/01 00:28:24;;;;;;;8.77;4.57;;;;;;;18.54;82.69;99375.81;4177361;28;20546;-79
2023/08/01 00:30:27;;;;;;;12.73;4.78;;;;;;;18.68;82.12;99370.91;4159591;28;20092;-78
2023/08/01 00:32:29;;;;;;;8.05;5.13;;;;;;;18.62;82.21;99373.78;4160495;28;20476;-79
2023/08/01 00:34:32;;;;;;;7.57;4.00;;;;;;;18.58;82.22;99377.44;4161366;28;20092;-79
2023/08/01 00:36:35;;;;;;;9.75;4.63;;;;;;;18.62;82.55;99374.63;4173155;28;20040;-80
2023/08/01 00:38:38;;;;;;;7.00;4.47;;;;;;;18.62;82.20;99379.06;4142867;28;20053;-79
2023/08/01 00:40:41;;;;;;;8.13;4.65;;;;;;;18.60;82.41;99370.34;4161829;28;20033;-79
2023/08/01 00:42:45;;;;;;;6.72;4.13;;;;;;;18.54;83.13;99365.28;4164128;28;20052;-79
2023/08/01 00:44:49;;;;;;;6.72;4.18;;;;;;;18.48;83.15;99359.31;4175542;28;20033;-79
2023/08/01 00:46:52;;;;;;;12.15;5.57;;;;;;;18.64;83.22;99345.63;4162439;28;20034;-79
2023/08/01 00:48:57;;;;;;;11.98;5.30;;;;;;;18.73;82.68;99347.91;4156838;28;20518;-78
2023/08/01 00:51:05;;;;;;;8.75;4.78;;;;;;;18.66;82.47;99346.41;4162933;28;20132;-78
2023/08/01 00:53:08;;;;;;;7.60;4.38;;;;;;;18.61;82.08;99335.22;4151311;28;20519;-80
2023/08/01 00:55:10;;;;;;;8.77;5.68;;;;;;;18.65;82.21;99326.28;4176276;28;20067;-78
2023/08/01 00:57:14;;;;;;;9.68;5.22;;;;;;;18.59;82.92;99300.19;4158844;28;20068;-77
2023/08/01 00:59:18;;;;;;;11.65;5.38;;;;;;;18.59;82.82;99289.66;4174704;28;20045;-78
2023/08/01 01:01:21;;;;;;;9.55;5.03;;;;;;;18.58;83.05;99295.84;4158569;28;20033;-78
2023/08/01 01:03:24;;;;;;;9.18;5.13;;;;;;;18.55;82.70;99296.81;4163252;28;20037;-75
2023/08/01 01:05:32;;;;;;;11.53;5.93;;;;;;;18.56;83.19;99288.00;4180902;28;20060;-80
2023/08/01 01:07:35;;;;;;;12.45;5.60;;;;;;;18.45;83.32;99306.81;4157390;28;20300;-81
2023/08/01 01:09:39;;;;;;;10.13;5.30;;;;;;;18.35;84.09;99310.69;4173674;28;20040;-79
2023/08/01 01:11:40;;;;;;;9.18;4.43;;;;;;;18.37;84.32;99305.38;4160789;28;20033;-81
2023/08/01 01:13:43;;;;;;;10.10;5.82;;;;;;;18.48;83.64;99290.06;4179101;28;20037;-81
2023/08/01 01:15:47;;;;;;;9.60;5.53;;;;;;;18.60;83.17;99280.84;4163268;28;20037;-80
2023/08/01 01:17:50;;;;;;;10.80;5.70;;;;;;;18.50;83.42;99280.34;4174860;28;20125;-77
2023/08/01 01:19:54;;;;;;;10.02;5.57;;;;;;;18.57;83.24;99275.69;4156443;28;20037;-78
2023/08/01 01:21:59;;;;;;;8.07;4.65;;;;;;;18.53;83.13;99279.34;4162272;28;20049;-78
2023/08/01 01:24:04;;;;;;;13.55;6.18;;;;;;;18.54;82.83;99271.38;4176392;28;20482;-77
2023/08/01 01:26:10;;;;;;;9.98;5.95;;;;;;;18.54;83.29;99300.34;4161182;28;20046;-79
2023/08/01 01:28:15;;;;;;;9.93;5.10;;;;;;;18.55;83.05;99299.44;4177814;28;20117;-78
2023/08/01 01:30:19;;;;;;;10.50;5.53;;;;;;;18.52;83.25;99314.50;4143782;28;20100;-79
2023/08/01 01:32:24;;;;;;;10.45;5.53;;;;;;;18.46;83.43;99308.53;4160740;28;20045;-79
2023/08/01 01:34:28;;;;;;;12.27;5.97;;;;;;;18.42;84.12;99308.72;4177739;28;20049;-80
2023/08/01 01:36:43;;;;;;;13.15;6.20;;;;;;;18.39;84.61;99307.03;4161179;28;20041;-78
2023/08/01 01:38:47;;;;;;;16.80;5.93;;;;;;;18.54;83.96;99296.88;4175594;28;20117;-79
2023/08/01 01:40:50;;;;;;;9.55;5.45;;;;;;;18.55;83.31;99303.84;4161392;28;20045;-80
2023/08/01 01:42:53;;;;;;;21.52;5.50;;;;;;;18.47;83.76;99307.63;4181066;28;20402;-80
2023/08/01 01:44:57;;;;;;;12.73;5.93;;;;;;;18.39;84.18;99299.16;4155897;28;20038;-78
2023/08/01 01:47:00;;;;;;;12.40;5.05;;;;;;;18.40;84.50;99295.59;4172598;28;20124;-79
2023/08/01 01:49:03;;;;;;;12.95;5.18;;;;;;;18.38;84.52;99294.78;4145664;28;20112;-79
2023/08/01 01:51:06;;;;;;;12.40;5.18;;;;;;;18.47;84.33;99285.69;4155966;28;20046;-79
2023/08/01 01:53:08;;;;;;;11.73;5.40;;;;;;;18.55;83.57;99278.38;4174609;28;20034;-79
2023/08/01 01:55:12;;;;;;;11.60;5.20;;;;;;;18.46;84.72;99290.13;4162690;28;20096;-79
2023/08/01 01:57:16;;;;;;;9.40;5.47;;;;;;;18.51;84.22;99286.47;4141642;28;20081;-80
2023/08/01 01:59:19;;;;;;;11.15;4.93;;;;;;;18.48;84.32;99282.16;4175778;28;20076;-80
2023/08/01 02:01:21;;;;;;;8.13;4.55;;;;;;;18.41;84.75;99265.75;4160304;28;20072;-79
2023/08/01 02:03:24;;;;;;;8.95;4.60;;;;;;;18.51;84.35;99279.41;4157032;28;20034;-80
2023/08/01 02:05:28;;;;;;;11.60;4.57;;;;;;;18.53;84.29;99274.97;4159779;28;20038;-80
2023/08/01 02:07:31;;;;;;;9.05;4.95;;;;;;;18.56;84.61;99272.22;4153368;28;21063;-80
2023/08/01 02:09:33;;;;;;;8.05;4.35;;;;;;;18.62;83.94;99261.44;4172574;28;20462;-79
2023/08/01 02:11:38;;;;;;;10.13;5.20;;;;;;;18.65;83.61;99240.25;4200090;22;20405;-70
2023/08/01 02:13:40;;;;;;;11.48;6.15;;;;;;;18.64;83.49;99235.06;4191517;28;20134;-71
2023/08/01 02:15:43;;;;;;;9.13;5.05;;;;;;;18.63;83.64;99243.88;4187984;28;20041;-71
2023/08/01 02:17:46;;;;;;;8.20;4.78;;;;;;;18.72;83.14;99251.44;4193421;28;20446;-71
2023/08/01 02:19:48;;;;;;;9.73;4.95;;;;;;;18.80;82.77;99245.84;4190900;28;20032;-71
2023/08/01 02:21:51;;;;;;;11.70;5.40;;;;;;;18.64;83.32;99235.06;4179093;28;20568;-71
2023/08/01 02:23:54;;;;;;;10.45;5.55;;;;;;;18.72;83.00;99234.75;4193970;28;20062;-71
2023/08/01 02:25:57;;;;;;;10.18;5.28;;;;;;;18.67;82.85;99224.41;4189612;28;20119;-70
2023/08/01 02:28:00;;;;;;;9.35;4.70;;;;;;;18.67;82.71;99233.19;4191934;28;20127;-71
2023/08/01 02:30:05;;;;;;;13.43;5.15;;;;;;;18.59;83.51;99232.59;4192985;28;20659;-71
2023/08/01 02:32:08;;;;;;;13.85;7.57;;;;;;;18.59;83.47;99231.75;4173854;28;20047;-70
2023/08/01 02:34:11;;;;;;;11.13;6.10;;;;;;;18.58;83.46;99225.63;4176242;28;20527;-70
2023/08/01 02:36:14;;;;;;;11.25;5.97;;;;;;;18.57;83.79;99228.31;4190916;28;20036;-70
2023/08/01 02:38:17;;;;;;;7.95;4.72;;;;;;;18.55;83.74;99225.75;4194765;28;20131;-71
2023/08/01 02:40:20;;;;;;;14.38;6.15;;;;;;;18.65;83.32;99208.66;4175937;28;20037;-71
2023/08/01 02:42:22;;;;;;;9.75;5.90;;;;;;;18.64;83.24;99212.22;4191406;28;20052;-71
2023/08/01 02:44:26;;;;;;;14.93;5.95;;;;;;;18.55;84.47;99211.72;4174097;28;20498;-71
2023/08/01 02:46:31;;;;;;;9.05;5.32;;;;;;;18.59;83.50;99213.34;4191393;28;20060;-72
2023/08/01 02:48:35;;;;;;;8.60;5.10;;;;;;;18.61;83.49;99208.84;4189130;28;20040;-71
2023/08/01 02:50:38;;;;;;;9.98;5.00;;;;;;;18.43;84.76;99203.38;4191359;28;20040;-72
2023/08/01 02:52:41;;;;;;;12.43;5.25;;;;;;;18.38;84.81;99200.06;4175687;28;20048;-73
2023/08/01 02:54:43;;;;;;;8.73;5.28;;;;;;;18.42;84.45;99188.50;4172002;28;20056;-72
2023/08/01 02:56:46;;;;;;;12.15;5.43;;;;;;;18.35;84.94;99197.53;4194531;28;20036;-72
2023/08/01 02:58:51;;;;;;;13.32;5.88;;;;;;;18.38;84.87;99184.28;4174135;28;20033;-72
2023/08/01 03:00:56;;;;;;;17.05;5.70;;;;;;;18.36;84.97;99199.28;4171150;28;20041;-72
2023/08/01 03:02:58;;;;;;;;;;;;;;;18.28;84.66;99193.44;4194628;28;20043;-72
2023/08/01 03:05:04;;;;;;;10.73;5.10;;;;;;;18.30;85.33;99195.09;4192449;28;20328;-72
2023/08/01 03:07:07;;;;;;;12.32;5.70;;;;;;;18.40;84.79;99194.75;4175717;28;20375;-71
2023/08/01 03:09:10;;;;;;;10.43;5.50;;;;;;;18.33;85.01;99199.41;4156960;28;20525;-72
2023/08/01 03:11:14;;;;;;;10.45;4.93;;;;;;;18.38;84.84;99186.91;4168661;28;20049;-71
2023/08/01 03:13:17;;;;;;;10.35;5.65;;;;;;;18.43;84.72;99184.97;4178082;28;20509;-72
2023/08/01 03:15:20;;;;;;;9.45;5.18;;;;;;;18.33;85.13;99188.03;4193353;28;20037;-72
2023/08/01 03:17:24;;;;;;;8.65;4.60;;;;;;;18.44;84.13;99186.69;4171159;28;20113;-71
2023/08/01 03:19:27;;;;;;;12.82;5.72;;;;;;;18.44;84.17;99196.34;4176719;28;20044;-71
2023/08/01 03:21:30;;;;;;;11.68;5.18;;;;;;;18.42;84.16;99199.03;4190738;28;20087;-72
2023/08/01 03:23:33;;;;;;;10.38;4.78;;;;;;;18.45;84.47;99191.00;4187941;28;20048;-72
2023/08/01 03:25:35;;;;;;;11.85;4.88;;;;;;;18.45;84.51;99191.00;4190703;28;20044;-71
2023/08/01 03:27:38;;;;;;;9.77;5.47;;;;;;;18.35;84.53;99194.06;4190759;28;20036;-72
2023/08/01 03:29:41;;;;;;;7.88;4.38;;;;;;;18.41;84.48;99186.81;4187190;28;20135;-72
2023/08/01 03:31:43;;;;;;;9.02;5.45;;;;;;;18.37;83.96;99179.94;4177173;28;20033;-72
2023/08/01 03:33:47;;;;;;;8.77;5.07;;;;;;;18.46;84.07;99179.59;4174117;28;20107;-72
2023/08/01 03:35:50;;;;;;;9.40;4.95;;;;;;;18.38;83.92;99176.38;4189722;28;20048;-72
2023/08/01 03:37:54;;;;;;;10.77;4.25;;;;;;;18.39;84.60;99179.88;4177591;28;20037;-72
2023/08/01 03:39:56;;;;;;;8.60;5.50;;;;;;;18.36;84.34;99174.75;4154910;28;20050;-72
2023/08/01 03:41:59;;;;;;;12.40;4.80;;;;;;;18.48;83.70;99167.22;4188364;28;20502;-72
2023/08/01 03:44:02;;;;;;;11.80;5.50;;;;;;;18.31;84.40;99161.75;4173812;28;20075;-71
2023/08/01 03:46:05;;;;;;;9.55;4.43;;;;;;;18.34;84.36;99159.03;4187658;28;20497;-71
2023/08/01 03:48:08;;;;;;;9.15;4.90;;;;;;;18.41;84.16;99171.03;4190345;28;20071;-71
2023/08/01 03:50:13;;;;;;;8.77;4.28;;;;;;;18.38;83.96;99171.13;4174229;28;20045;-72
2023/08/01 03:52:16;;;;;;;8.43;4.78;;;;;;;18.47;83.42;99165.53;4173611;28;20112;-71
2023/08/01 03:54:19;;;;;;;7.53;4.75;;;;;;;18.38;83.77;99171.13;4188598;28;20029;-74
2023/08/01 03:56:22;;;;;;;8.38;4.28;;;;;;;18.31;84.58;99164.38;4174073;28;20135;-73
2023/08/01 03:58:25;;;;;;;8.35;4.45;;;;;;;18.39;84.38;99158.84;4192586;28;20143;-72
2023/08/01 04:00:32;;;;;;;9.75;5.43;;;;;;;18.33;84.92;99161.72;4175910;28;20499;-73
2023/08/01 04:02:35;;;;;;;10.25;4.68;;;;;;;18.48;83.76;99166.38;4177154;28;20048;-72
2023/08/01 04:04:38;;;;;;;8.85;4.90;;;;;;;18.34;84.29;99158.16;4175036;28;20458;-71
2023/08/01 04:06:43;;;;;;;8.02;4.45;;;;;;;18.29;84.69;99151.28;4192682;28;20062;-72
2023/08/01 04:08:46;;;;;;;11.50;5.50;;;;;;;18.41;84.18;99160.50;4177511;28;20025;-72
2023/08/01 04:10:50;;;;;;;8.80;4.90;;;;;;;18.51;83.23;99145.19;4159445;28;20045;-72
2023/08/01 04:12:53;;;;;;;9.18;5.22;;;;;;;18.43;84.02;99152.53;4189991;28;20068;-72
2023/08/01 04:14:56;;;;;;;11.82;4.13;;;;;;;18.37;84.68;99155.38;4174108;28;20040;-72
2023/08/01 04:16:59;;;;;;;11.13;4.70;;;;;;;18.41;84.34;99152.59;4191199;28;20249;-73
2023/08/01 04:19:02;;;;;;;8.43;4.43;;;;;;;18.45;84.15;99155.97;4191405;28;20033;-72
2023/08/01 04:21:06;;;;;;;12.50;5.45;;;;;;;18.43;84.16;99144.66;4190263;28;20128;-72
2023/08/01 04:23:10;;;;;;;10.85;5.03;;;;;;;18.39;84.34;99150.94;4194091;28;20060;-73
2023/08/01 04:25:13;;;;;;;6.28;3.83;;;;;;;18.44;83.96;99143.72;4168900;28;20137;-73
2023/08/01 04:27:16;;;;;;;7.93;4.75;;;;;;;18.39;84.37;99145.69;4186765;28;20040;-76
2023/08/01 04:29:19;;;;;;;8.95;4.82;;;;;;;18.37;84.48;99143.13;4193057;28;20571;-76
2023/08/01 04:31:22;;;;;;;13.20;4.95;;;;;;;18.36;84.41;99149.28;4169192;28;20049;-73
2023/08/01 04:33:25;;;;;;;9.98;4.28;;;;;;;18.38;83.71;99155.31;4187647;28;20032;-75
2023/08/01 04:35:28;;;;;;;10.95;4.22;;;;;;;18.30;84.65;99149.53;4190503;28;20127;-74
2023/08/01 04:37:31;;;;;;;10.00;5.40;;;;;;;18.30;84.93;99147.75;4191120;28;20127;-74
2023/08/01 04:39:35;;;;;;;10.73;4.43;;;;;;;18.26;84.68;99151.41;4185372;28;20071;-76
2023/08/01 04:41:38;;;;;;;9.20;4.18;;;;;;;18.24;84.59;99162.94;4171637;28;20040;-75
2023/08/01 04:43:40;;;;;;;7.53;4.38;;;;;;;18.21;85.05;99163.91;4188024;28;20468;-74
2023/08/01 04:45:43;;;;;;;12.32;4.78;;;;;;;18.21;85.19;99170.91;4175396;28;20170;-74
2023/08/01 04:47:46;;;;;;;10.65;4.75;;;;;;;18.21;85.17;99178.78;4194764;28;20042;-74
2023/08/01 04:49:48;;;;;;;8.63;4.88;;;;;;;18.25;85.58;99175.13;4174229;28;20064;-74
2023/08/01 04:51:51;;;;;;;8.18;4.20;;;;;;;18.23;85.75;99183.09;4170200;28;20053;-73
2023/08/01 04:53:54;;;;;;;7.07;4.13;;;;;;;18.18;85.55;99190.31;4188207;28;20037;-72
2023/08/01 04:56:00;;;;;;;10.68;4.00;;;;;;;18.23;85.50;99169.09;4165205;28;20056;-73
2023/08/01 04:58:02;;;;;;;7.50;4.22;;;;;;;18.21;85.52;99145.47;4187078;28;20033;-72
2023/08/01 05:00:06;;;;;;;13.77;5.35;;;;;;;18.23;85.73;99146.25;4187095;28;20651;-73
2023/08/01 05:02:09;;;;;;;6.82;3.58;;;;;;;18.16;85.63;99150.03;4190979;28;20459;-73
2023/08/01 05:04:12;;;;;;;6.10;3.78;;;;;;;18.20;85.58;99161.31;4174117;28;20132;-74
2023/08/01 05:06:15;;;;;;;7.82;4.32;;;;;;;18.16;85.52;99171.09;4183153;28;20043;-74
2023/08/01 05:08:18;;;;;;;6.78;4.15;;;;;;;18.19;85.92;99162.22;4178915;28;20091;-74
2023/08/01 05:10:21;;;;;;;11.18;4.68;;;;;;;18.25;86.09;99165.50;4191638;28;20776;-74
2023/08/01 05:12:25;;;;;;;8.93;4.55;;;;;;;18.28;85.34;99162.75;4171854;28;20033;-73
2023/08/01 05:14:28;;;;;;;7.28;4.63;;;;;;;18.22;85.44;99170.84;4193817;28;20036;-72
2023/08/01 05:16:31;;;;;;;11.18;4.10;;;;;;;18.21;85.87;99169.16;4195970;28;20102;-73
2023/08/01 05:18:34;;;;;;;12.10;4.82;;;;;;;18.31;85.14;99167.00;4192554;28;20036;-73
2023/08/01 05:20:37;;;;;;;12.23;4.57;;;;;;;18.30;85.12;99157.41;4159147;28;20158;-73
2023/08/01 05:22:40;;;;;;;10.63;4.85;;;;;;;18.27;84.87;99162.81;4180640;28;20044;-73
2023/08/01 05:24:43;;;;;;;7.85;4.10;;;;;;;18.28;85.10;99153.97;4180347;28;20071;-73
2023/08/01 05:26:46;;;;;;;7.55;4.10;;;;;;;18.28;84.70;99157.47;4183397;28;20036;-73
2023/08/01 05:28:50;;;;;;;9.15;4.43;;;;;;;18.19;84.67;99156.97;4185236;28;20040;-73
2023/08/01 05:30:53;;;;;;;9.77;4.93;;;;;;;18.20;84.65;99150.78;4188774;28;20033;-73
2023/08/01 05:32:56;;;;;;;11.13;5.22;;;;;;;18.22;84.34;99155.06;4172243;28;20071;-72
2023/08/01 05:34:59;;;;;;;10.20;4.72;;;;;;;18.28;83.96;99164.50;4190593;28;20491;-72
2023/08/01 05:37:02;;;;;;;8.50;4.40;;;;;;;18.19;84.62;99170.97;4182067;28;20033;-72
2023/08/01 05:39:04;;;;;;;8.45;4.72;;;;;;;18.23;84.33;99171.72;4164938;28;20063;-72
2023/08/01 05:41:07;;;;;;;13.18;5.63;;;;;;;18.20;84.55;99177.09;4191940;28;20037;-73
2023/08/01 05:43:10;;;;;;;10.80;5.27;;;;;;;18.22;84.15;99164.75;4171557;28;20509;-72
2023/08/01 05:45:15;;;;;;;12.18;6.70;;;;;;;18.13;84.47;99176.47;4171344;28;20398;-72
2023/08/01 05:47:18;;;;;;;11.98;6.20;;;;;;;18.14;83.75;99186.06;4152755;28;20153;-73
2023/08/01 05:49:20;;;;;;;12.35;6.70;;;;;;;18.05;83.79;99191.69;4191113;28;20041;-73
2023/08/01 05:51:23;;;;;;;12.48;6.65;;;;;;;18.00;84.15;99178.69;4189766;28;20036;-73
2023/08/01 05:53:27;;;;;;;9.32;5.97;;;;;;;17.98;83.89;99172.63;4194966;28;20544;-72
2023/08/01 05:55:30;;;;;;;10.07;6.10;;;;;;;17.94;84.09;99171.03;4190746;28;20043;-73
2023/08/01 05:57:33;;;;;;;9.13;6.20;;;;;;;17.80;83.89;99177.63;4181890;28;20044;-73
2023/08/01 05:59:34;;;;;;;13.40;6.72;;;;;;;17.87;83.71;99169.50;4181985;28;20076;-73
2023/08/01 06:01:39;;;;;;;19.08;6.90;;;;;;;17.83;84.14;99162.63;4182314;28;20033;-73
2023/08/01 06:03:42;;;;;;;12.40;6.90;;;;;;;17.79;84.22;99161.91;4190246;28;20139;-73
2023/08/01 06:05:45;;;;;;;12.07;6.65;;;;;;;17.88;84.15;99161.56;4193664;28;20062;-73
2023/08/01 06:07:48;;;;;;;9.13;6.07;;;;;;;17.85;84.36;99164.31;4185641;28;20036;-73
2023/08/01 06:09:51;;;;;;;13.10;6.85;;;;;;;17.84;84.54;99151.22;4178648;28;20038;-73
2023/08/01 06:11:54;;;;;;;13.05;7.40;;;;;;;17.85;83.62;99150.31;4195993;28;20131;-73
2023/08/01 06:13:56;;;;;;;10.95;6.97;;;;;;;17.85;83.88;99142.44;4193892;28;20045;-72
2023/08/01 06:15:59;;;;;;;11.95;7.20;;;;;;;17.79;84.17;99136.47;4195597;28;20043;-72
2023/08/01 06:18:03;;;;;;;11.25;6.38;;;;;;;17.81;83.62;99128.53;4183662;28;20043;-72
2023/08/01 06:20:08;;;;;;;12.23;7.82;;;;;;;17.79;84.21;99122.47;4190128;28;20041;-73
2023/08/01 06:22:11;;;;;;;11.95;6.57;;;;;;;17.71;84.39;99137.66;4193722;28;20041;-73
2023/08/01 06:24:14;;;;;;;11.48;6.07;;;;;;;17.70;84.37;99142.06;4196572;28;20131;-73
2023/08/01 06:26:16;;;;;;;12.93;7.13;;;;;;;17.81;84.31;99144.28;4173222;28;20045;-72
2023/08/01 06:28:19;;;;;;;10.85;5.70;;;;;;;17.83;83.92;99138.97;4193037;28;20040;-72
2023/08/01 06:30:21;;;;;;;8.13;5.85;;;;;;;17.71;84.39;99133.28;4171034;28;20466;-72
2023/08/01 06:32:24;;;;;;;8.20;4.82;;;;;;;17.63;85.16;99132.69;4195039;28;20485;-73
2023/08/01 06:34:28;;;;;;;8.80;5.07;;;;;;;17.68;85.01;99127.25;4195672;28;20410;-73
2023/08/01 06:36:32;;;;;;;10.88;5.60;;;;;;;17.81;84.45;99133.78;4188215;28;20032;-73
2023/08/01 06:38:35;;;;;;;10.73;5.38;;;;;;;17.79;84.34;99131.22;4197898;28;20056;-73
2023/08/01 06:40:37;;;;;;;9.00;5.05;;;;;;;17.76;84.93;99126.06;4179886;28;20037;-73
2023/08/01 06:42:40;;;;;;;8.82;4.53;;;;;;;17.72;84.94;99134.97;4179933;28;20097;-73
2023/08/01 06:44:44;;;;;;;8.98;5.00;;;;;;;17.78;84.94;99134.78;4180100;28;20167;-73
2023/08/01 06:46:47;;;;;;;7.63;4.68;;;;;;;17.77;84.88;99142.69;4197616;28;20494;-73
2023/08/01 06:48:50;;;;;;;8.75;4.55;;;;;;;17.85;84.82;99137.16;4197809;28;20047;-73
2023/08/01 06:50:54;;;;;;;8.35;4.38;;;;;;;17.70;85.11;99135.97;4197718;28;20498;-73
2023/08/01 06:52:57;;;;;;;9.88;5.18;;;;;;;17.64;85.80;99147.56;4197802;28;20068;-73
2023/08/01 06:55:00;;;;;;;7.45;4.88;;;;;;;17.66;85.46;99139.63;4197714;28;20406;-73
2023/08/01 06:57:04;;;;;;;7.40;4.38;;;;;;;17.61;85.86;99147.66;4195998;28;20068;-73
2023/08/01 06:59:07;;;;;;;7.83;4.37;;;;;;;17.70;85.42;99138.59;4163385;28;20041;-72
2023/08/01 07:01:10;;;;;;;7.25;4.20;;;;;;;17.65;85.67;99128.22;4197245;28;20037;-73
2023/08/01 07:03:12;;;;;;;11.15;4.78;;;;;;;17.59;86.13;99129.31;4179773;28;20493;-73
2023/08/01 07:05:15;;;;;;;7.93;4.20;;;;;;;17.62;85.74;99128.34;4197587;28;20040;-73
2023/08/01 07:07:20;;;;;;;6.78;4.03;;;;;;;17.82;85.38;99124.16;4197192;28;20512;-73
2023/08/01 07:09:23;;;;;;;8.43;4.50;;;;;;;17.62;85.89;99121.34;4179763;28;20505;-73
2023/08/01 07:11:25;;;;;;;7.20;4.07;;;;;;;17.64;86.18;99129.16;4197183;28;20490;-75
2023/08/01 07:13:28;;;;;;;7.95;4.57;;;;;;;17.67;86.23;99131.66;4179675;28;20524;-75
2023/08/01 07:15:31;;;;;;;7.85;4.57;;;;;;;17.83;85.54;99121.47;4179709;28;20490;-75
2023/08/01 07:17:34;;;;;;;6.72;3.95;;;;;;;17.87;85.59;99122.19;4195789;28;20042;-75
2023/08/01 07:19:38;;;;;;;5.97;3.50;;;;;;;17.86;85.94;99117.84;4197214;28;20046;-75
2023/08/01 07:21:41;;;;;;;5.90;3.30;;;;;;;17.95;85.44;99134.16;4195918;28;20039;-75
2023/08/01 07:23:45;;;;;;;6.10;3.50;;;;;;;17.94;85.50;99135.06;4178409;28;20213;-74
2023/08/01 07:25:48;;;;;;;8.68;4.32;;;;;;;18.00;85.51;99123.47;4171148;28;20502;-75
2023/08/01 07:27:51;;;;;;;6.88;3.50;;;;;;;18.01;85.70;99125.19;4180349;28;20060;-75
2023/08/01 07:29:54;;;;;;;6.65;3.38;;;;;;;18.19;85.12;99141.19;4146446;28;20057;-75
2023/08/01 07:31:57;;;;;;;5.35;3.53;;;;;;;18.25;84.83;99141.81;4178574;28;20040;-75
2023/08/01 07:34:00;;;;;;;7.47;4.32;;;;;;;18.29;84.58;99151.28;4180442;28;20513;-75
2023/08/01 07:36:02;;;;;;;10.23;3.50;;;;;;;18.29;84.72;99150.44;4180342;28;20120;-74
2023/08/01 07:38:05;;;;;;;6.97;3.60;;;;;;;18.28;84.67;99156.59;4180205;28;20055;-73
2023/08/01 07:40:11;;;;;;;8.25;3.80;;;;;;;18.36;84.31;99154.53;4162569;28;20095;-74
2023/08/01 07:42:12;;;;;;;6.32;3.58;;;;;;;18.37;84.74;99169.44;4162680;28;20086;-75
2023/08/01 07:44:15;;;;;;;4.45;3.08;;;;;;;18.35;84.88;99162.50;4180430;28;20044;-74
2023/08/01 07:46:18;;;;;;;6.97;3.45;;;;;;;18.52;83.64;99172.38;4178867;28;20041;-74
2023/08/01 07:48:21;;;;;;;8.40;3.75;;;;;;;18.45;84.27;99174.38;4180357;28;20492;-74
2023/08/01 07:50:24;;;;;;;5.70;2.95;;;;;;;18.33;84.47;99172.25;4180536;28;20075;-74
2023/08/01 07:52:27;;;;;;;5.47;3.00;;;;;;;18.38;84.98;99186.06;4180201;28;20394;-75
2023/08/01 07:54:30;;;;;;;3.92;2.55;;;;;;;18.42;85.43;99185.03;4162432;28;20076;-75
2023/08/01 07:56:34;;;;;;;5.97;2.92;;;;;;;18.34;85.84;99182.69;4179893;28;20052;-75
2023/08/01 07:58:37;;;;;;;6.47;2.97;;;;;;;18.37;85.88;99193.09;4180215;28;20522;-74
2023/08/01 08:00:40;;;;;;;5.93;2.60;;;;;;;18.43;85.56;99192.88;4180145;28;20494;-74
2023/08/01 08:02:44;;;;;;;6.28;3.28;;;;;;;18.52;85.30;99196.91;4183892;28;20398;-74
2023/08/01 08:04:57;;;;;;;5.72;2.83;;;;;;;18.58;84.85;99195.81;4179027;28;20578;-74
2023/08/01 08:07:00;;;;;;;7.13;3.50;;;;;;;18.71;84.85;99204.94;4145758;28;20038;-74
2023/08/01 08:09:03;;;;;;;7.15;3.30;;;;;;;18.93;84.10;99204.13;4162205;28;20137;-74
2023/08/01 08:11:06;;;;;;;4.78;3.00;;;;;;;19.18;83.69;99209.25;4176690;22;20495;-76
2023/08/01 08:13:11;;;;;;;5.10;2.50;;;;;;;19.17;84.01;99208.41;4179531;28;20041;-78
2023/08/01 08:15:15;;;;;;;6.28;2.95;;;;;;;19.13;84.21;99198.06;4162128;28;20538;-65
2023/08/01 08:17:18;;;;;;;4.65;2.85;;;;;;;19.22;83.94;99202.94;4161866;28;20099;-65
2023/08/01 08:19:23;;;;;;;11.25;4.78;;;;;;;19.27;83.00;99200.94;4180065;28;20033;-65
2023/08/01 08:21:26;;;;;;;6.38;3.20;;;;;;;19.28;83.00;99200.03;4188176;28;20040;-66
2023/08/01 08:23:29;;;;;;;4.55;2.65;;;;;;;19.30;82.71;99197.31;4195453;28;20119;-66
2023/08/01 08:25:33;;;;;;;4.85;2.95;;;;;;;19.06;83.77;99193.94;4196467;28;20033;-66
2023/08/01 08:27:36;;;;;;;6.03;2.70;;;;;;;18.96;84.27;99196.09;4196233;28;20094;-66
2023/08/01 08:29:40;;;;;;;13.00;7.47;;;;;;;19.00;84.53;99197.69;4196364;28;20314;-66
2023/08/01 08:31:43;;;;;;;4.60;2.75;;;;;;;19.00;84.86;99205.59;4196382;28;20410;-66
2023/08/01 08:33:46;;;;;;;4.38;2.33;;;;;;;19.05;84.53;99206.25;4196377;28;20068;-66
2023/08/01 08:35:48;;;;;;;6.38;2.78;;;;;;;19.01;84.12;99217.81;4196343;28;20045;-66
2023/08/01 08:37:51;;;;;;;4.82;2.78;;;;;;;18.96;84.27;99209.25;4196133;28;20414;-66
2023/08/01 08:39:53;;;;;;;5.22;2.40;;;;;;;18.99;83.41;99222.31;4178339;28;20056;-66
2023/08/01 08:41:55;;;;;;;2.92;1.27;;;;;;;18.83;82.65;99241.31;4196739;28;20132;-65
2023/08/01 08:44:02;;;;;;;2.97;1.00;;;;;;;18.77;81.90;99225.75;4199889;28;20131;-79
2023/08/01 08:46:06;;;;;;;1.90;0.90;;;;;;;18.64;81.45;99217.47;4196350;28;20127;-78
2023/08/01 08:48:12;;;;;;;2.60;1.02;;;;;;;18.64;81.02;99214.00;4193650;28;20440;-77
2023/08/01 08:50:18;;;;;;;2.00;1.00;;;;;;;18.55;80.96;99225.75;4169029;28;20045;-78
2023/08/01 08:52:22;;;;;;;2.10;0.90;;;;;;;18.56;81.22;99221.31;4187103;28;20028;-77
2023/08/01 08:54:26;;;;;;;1.65;0.95;;;;;;;18.57;81.28;99223.91;4199666;28;20493;-77
2023/08/01 08:56:28;;;;;;;1.95;0.90;;;;;;;18.64;81.85;99220.09;4165015;28;20046;-77
2023/08/01 08:58:32;;;;;;;1.63;1.10;;;;;;;18.77;81.17;99223.13;4181883;28;20075;-77
2023/08/01 09:00:36;;;;;;;3.13;1.10;;;;;;;18.89;81.33;99234.13;4199382;28;20041;-77
2023/08/01 09:02:41;;;;;;;3.15;1.10;;;;;;;19.00;80.92;99229.28;4199698;28;20040;-77
2023/08/01 09:04:44;;;;;;;1.80;1.20;;;;;;;19.06;80.68;99231.69;4181696;28;20036;-78
2023/08/01 09:06:50;;;;;;;4.63;1.48;;;;;;;19.19;80.74;99235.53;4199184;28;20144;-77
2023/08/01 09:09:04;;;;;;;2.83;1.15;;;;;;;19.27;80.10;99242.25;4181673;28;20585;-78
2023/08/01 09:11:07;;;;;;;2.58;0.70;;;;;;;19.32;79.37;99241.16;4199354;28;20592;-77
2023/08/01 09:13:10;;;;;;;2.15;1.10;;;;;;;19.40;79.78;99246.09;4181328;28;20244;-78
2023/08/01 09:15:14;;;;;;;1.95;1.00;;;;;;;19.45;79.52;99246.78;4181477;28;20049;-77
2023/08/01 09:17:18;;;;;;;1.15;0.90;;;;;;;19.45;79.45;99254.69;4199070;28;20072;-78
2023/08/01 09:19:27;;;;;;;1.60;0.90;;;;;;;19.45;79.85;99252.03;4181412;28;20048;-78
2023/08/01 09:21:34;;;;;;;1.20;1.08;;;;;;;19.42;79.46;99248.66;4164646;28;20053;-78
2023/08/01 09:23:37;;;;;;;3.97;1.10;;;;;;;19.59;79.21;99245.31;4199184;28;20049;-78
2023/08/01 09:25:40;;;;;;;3.53;1.10;;;;;;;19.90;78.81;99244.03;4199301;28;20041;-78
2023/08/01 09:27:43;;;;;;;3.57;0.90;;;;;;;20.10;77.42;99251.91;4198994;28;20045;-78
2023/08/01 09:29:46;;;;;;;2.63;1.00;;;;;;;20.22;76.73;99251.38;4199029;28;20340;-78
2023/08/01 09:31:50;;;;;;;3.53;0.80;;;;;;;20.41;75.84;99255.81;4198892;28;20064;-78
2023/08/01 09:33:52;;;;;;;1.42;0.90;;;;;;;20.45;76.20;99262.66;4198980;28;20486;-78
2023/08/01 09:35:57;;;;;;;3.35;1.00;;;;;;;20.42;77.15;99262.81;4198999;28;20044;-77
2023/08/01 09:38:01;;;;;;;1.50;1.08;;;;;;;20.62;77.05;99253.09;4198718;28;20036;-78
2023/08/01 09:40:04;;;;;;;2.95;1.05;;;;;;;20.84;76.56;99250.34;4180897;28;20041;-79